^^
Your Local Weather - Clay, NY Station Historical Data
Daily Summary for February 10, 2018 Units:  Both    English   Metric
« Previous Day
Next Day »
Daily Weekly Monthly Yearly Custom
  High: Low: Average:
Temperature: 36.9 °F /  2.7 °C 24.4 °F /  -4.2 °C 29.7 °F /  -1.3 °C
Dew Point: 32.5 °F /  0.3 °C 22.0 °F /  -5.6 °C 27.1 °F /  -2.7 °C
Humidity: 92% 84% 90%
Wind Speed: 4.0mph /  6.4km/h - 0.7mph /  1.1km/h
Wind Gust: 6.0mph /  9.7km/h - -
Wind- - WSW
Pressure: 30.18 in /  1021.9 hPa 30.01 in /  1016.1 hPa -
Precipitation: 0.00 in /  0 mm    
Historical Graphs
 
 
Tabular Data for February 10, 2018
Time Temperature Dew Point Pressure Wind Wind Speed Wind Gust Humidity Rainfall Rate (Hourly) solar
00:02 24.4 °F /  -4.2 °C 22.2 °F /  -5.4 °C 30.18in /  1021.9hPa East 1.0mph /  1.6km/h 1.0mph /  1.6km/h 91% 0.00in /  0mm 0 W/m2
00:08 24.5 °F /  -4.2 °C 22.2 °F /  -5.4 °C 30.18in /  1021.9hPa East 1.0mph /  1.6km/h 2.0mph /  3.2km/h 91% 0.00in /  0mm 0 W/m2
00:16 24.5 °F /  -4.2 °C 22.0 °F /  -5.6 °C 30.18in /  1021.9hPa ENE 1.0mph /  1.6km/h 3.0mph /  4.8km/h 90% 0.00in /  0mm 0 W/m2
00:22 24.6 °F /  -4.1 °C 22.1 °F /  -5.5 °C 30.18in /  1021.9hPa East 1.0mph /  1.6km/h 2.0mph /  3.2km/h 90% 0.00in /  0mm 0 W/m2
00:28 24.6 °F /  -4.1 °C 22.1 °F /  -5.5 °C 30.18in /  1021.9hPa East 1.0mph /  1.6km/h 3.0mph /  4.8km/h 90% 0.00in /  0mm 0 W/m2
00:34 24.7 °F /  -4.1 °C 22.2 °F /  -5.4 °C 30.18in /  1021.9hPa East 1.0mph /  1.6km/h 2.0mph /  3.2km/h 90% 0.00in /  0mm 0 W/m2
00:40 24.7 °F /  -4.1 °C 22.2 °F /  -5.4 °C 30.18in /  1021.9hPa ENE 1.0mph /  1.6km/h 3.0mph /  4.8km/h 90% 0.00in /  0mm 0 W/m2
00:46 24.7 °F /  -4.1 °C 22.2 °F /  -5.4 °C 30.18in /  1021.9hPa ENE 1.0mph /  1.6km/h 3.0mph /  4.8km/h 90% 0.00in /  0mm 0 W/m2
00:52 24.8 °F /  -4 °C 22.3 °F /  -5.4 °C 30.18in /  1021.9hPa ENE 1.0mph /  1.6km/h 1.0mph /  1.6km/h 90% 0.00in /  0mm 0 W/m2
00:58 24.8 °F /  -4 °C 22.3 °F /  -5.4 °C 30.18in /  1021.9hPa Calm   1.0mph /  1.6km/h 90% 0.00in /  0mm 0 W/m2
01:04 24.9 °F /  -3.9 °C 22.4 °F /  -5.3 °C 30.17in /  1021.6hPa ENE 1.0mph /  1.6km/h 4.0mph /  6.4km/h 90% 0.00in /  0mm 0 W/m2
01:10 24.9 °F /  -3.9 °C 22.4 °F /  -5.3 °C 30.17in /  1021.6hPa ENE 1.0mph /  1.6km/h 2.0mph /  3.2km/h 90% 0.00in /  0mm 0 W/m2
01:16 25.0 °F /  -3.9 °C 22.5 °F /  -5.3 °C 30.17in /  1021.6hPa ENE 1.0mph /  1.6km/h 2.0mph /  3.2km/h 90% 0.00in /  0mm 0 W/m2
01:22 25.0 °F /  -3.9 °C 22.5 °F /  -5.3 °C 30.17in /  1021.6hPa ENE 1.0mph /  1.6km/h 2.0mph /  3.2km/h 90% 0.00in /  0mm 0 W/m2
01:28 25.0 °F /  -3.9 °C 22.5 °F /  -5.3 °C 30.17in /  1021.6hPa Calm   2.0mph /  3.2km/h 90% 0.00in /  0mm 0 W/m2
01:34 25.0 °F /  -3.9 °C 22.5 °F /  -5.3 °C 30.18in /  1021.9hPa ENE 1.0mph /  1.6km/h 1.0mph /  1.6km/h 90% 0.00in /  0mm 0 W/m2
01:46 25.1 °F /  -3.8 °C 22.6 °F /  -5.2 °C 30.17in /  1021.6hPa Calm   1.0mph /  1.6km/h 90% 0.00in /  0mm 0 W/m2
01:52 25.1 °F /  -3.8 °C 22.6 °F /  -5.2 °C 30.17in /  1021.6hPa ENE 1.0mph /  1.6km/h 2.0mph /  3.2km/h 90% 0.00in /  0mm 0 W/m2
01:58 25.1 °F /  -3.8 °C 22.6 °F /  -5.2 °C 30.17in /  1021.6hPa ENE 1.0mph /  1.6km/h 2.0mph /  3.2km/h 90% 0.00in /  0mm 0 W/m2
02:04 25.2 °F /  -3.8 °C 22.7 °F /  -5.2 °C 30.17in /  1021.6hPa Calm   1.0mph /  1.6km/h 90% 0.00in /  0mm 0 W/m2
02:10 25.2 °F /  -3.8 °C 22.7 °F /  -5.2 °C 30.17in /  1021.6hPa Calm     90% 0.00in /  0mm 0 W/m2
02:16 25.3 °F /  -3.7 °C 22.8 °F /  -5.1 °C 30.17in /  1021.6hPa Calm   2.0mph /  3.2km/h 90% 0.00in /  0mm 0 W/m2
02:22 25.3 °F /  -3.7 °C 22.8 °F /  -5.1 °C 30.17in /  1021.6hPa Calm   1.0mph /  1.6km/h 90% 0.00in /  0mm 0 W/m2
02:28 25.3 °F /  -3.7 °C 22.8 °F /  -5.1 °C 30.17in /  1021.6hPa Calm   1.0mph /  1.6km/h 90% 0.00in /  0mm 0 W/m2
02:34 25.4 °F /  -3.7 °C 22.9 °F /  -5.1 °C 30.16in /  1021.2hPa ENE 1.0mph /  1.6km/h 2.0mph /  3.2km/h 90% 0.00in /  0mm 0 W/m2
02:40 25.4 °F /  -3.7 °C 22.9 °F /  -5.1 °C 30.17in /  1021.6hPa ENE 1.0mph /  1.6km/h 1.0mph /  1.6km/h 90% 0.00in /  0mm 0 W/m2
02:46 25.5 °F /  -3.6 °C 23.0 °F /  -5 °C 30.17in /  1021.6hPa Calm   1.0mph /  1.6km/h 90% 0.00in /  0mm 0 W/m2
02:52 25.6 °F /  -3.6 °C 23.1 °F /  -4.9 °C 30.16in /  1021.2hPa Calm   1.0mph /  1.6km/h 90% 0.00in /  0mm 0 W/m2
02:58 25.6 °F /  -3.6 °C 23.1 °F /  -4.9 °C 30.16in /  1021.2hPa Calm   1.0mph /  1.6km/h 90% 0.00in /  0mm 0 W/m2
03:04 25.7 °F /  -3.5 °C 23.2 °F /  -4.9 °C 30.16in /  1021.2hPa Calm     90% 0.00in /  0mm 0 W/m2
03:10 25.8 °F /  -3.4 °C 23.3 °F /  -4.8 °C 30.16in /  1021.2hPa Calm   1.0mph /  1.6km/h 90% 0.00in /  0mm 0 W/m2
03:16 25.8 °F /  -3.4 °C 23.3 °F /  -4.8 °C 30.16in /  1021.2hPa Calm   1.0mph /  1.6km/h 90% 0.00in /  0mm 0 W/m2
03:22 25.9 °F /  -3.4 °C 23.4 °F /  -4.8 °C 30.16in /  1021.2hPa ENE 1.0mph /  1.6km/h 1.0mph /  1.6km/h 90% 0.00in /  0mm 0 W/m2
03:28 25.9 °F /  -3.4 °C 23.4 °F /  -4.8 °C 30.16in /  1021.2hPa ENE 1.0mph /  1.6km/h 1.0mph /  1.6km/h 90% 0.00in /  0mm 0 W/m2
03:34 26.0 °F /  -3.3 °C 23.5 °F /  -4.7 °C 30.16in /  1021.2hPa Calm   1.0mph /  1.6km/h 90% 0.00in /  0mm 0 W/m2
03:40 26.1 °F /  -3.3 °C 23.6 °F /  -4.7 °C 30.16in /  1021.2hPa Calm     90% 0.00in /  0mm 0 W/m2
03:46 26.2 °F /  -3.2 °C 23.7 °F /  -4.6 °C 30.16in /  1021.2hPa Calm   1.0mph /  1.6km/h 90% 0.00in /  0mm 0 W/m2
03:52 26.2 °F /  -3.2 °C 23.7 °F /  -4.6 °C 30.16in /  1021.2hPa Calm   2.0mph /  3.2km/h 90% 0.00in /  0mm 0 W/m2
03:58 26.3 °F /  -3.2 °C 23.8 °F /  -4.6 °C 30.16in /  1021.2hPa Calm   2.0mph /  3.2km/h 90% 0.00in /  0mm 0 W/m2
04:04 26.3 °F /  -3.2 °C 23.8 °F /  -4.6 °C 30.16in /  1021.2hPa ENE 1.0mph /  1.6km/h 1.0mph /  1.6km/h 90% 0.00in /  0mm 0 W/m2
04:10 26.3 °F /  -3.2 °C 23.8 °F /  -4.6 °C 30.16in /  1021.2hPa Calm   1.0mph /  1.6km/h 90% 0.00in /  0mm 0 W/m2
04:16 26.4 °F /  -3.1 °C 23.9 °F /  -4.5 °C 30.16in /  1021.2hPa Calm   1.0mph /  1.6km/h 90% 0.00in /  0mm 0 W/m2
04:22 26.4 °F /  -3.1 °C 23.9 °F /  -4.5 °C 30.16in /  1021.2hPa Calm   1.0mph /  1.6km/h 90% 0.00in /  0mm 0 W/m2
04:28 26.4 °F /  -3.1 °C 23.9 °F /  -4.5 °C 30.16in /  1021.2hPa Calm   1.0mph /  1.6km/h 90% 0.00in /  0mm 0 W/m2
04:34 26.5 °F /  -3.1 °C 24.0 °F /  -4.4 °C 30.16in /  1021.2hPa Calm     90% 0.00in /  0mm 0 W/m2
04:40 26.5 °F /  -3.1 °C 24.0 °F /  -4.4 °C 30.16in /  1021.2hPa Calm     90% 0.00in /  0mm 0 W/m2
04:46 26.5 °F /  -3.1 °C 24.0 °F /  -4.4 °C 30.15in /  1020.9hPa Calm   1.0mph /  1.6km/h 90% 0.00in /  0mm 0 W/m2
04:52 26.5 °F /  -3.1 °C 24.0 °F /  -4.4 °C 30.16in /  1021.2hPa Calm     90% 0.00in /  0mm 0 W/m2
04:58 26.5 °F /  -3.1 °C 24.0 °F /  -4.4 °C 30.16in /  1021.2hPa Calm   2.0mph /  3.2km/h 90% 0.00in /  0mm 0 W/m2
05:04 26.6 °F /  -3 °C 24.1 °F /  -4.4 °C 30.16in /  1021.2hPa Calm   1.0mph /  1.6km/h 90% 0.00in /  0mm 0 W/m2
05:10 26.7 °F /  -2.9 °C 24.2 °F /  -4.3 °C 30.16in /  1021.2hPa ENE 1.0mph /  1.6km/h 1.0mph /  1.6km/h 90% 0.00in /  0mm 0 W/m2
05:16 26.7 °F /  -2.9 °C 24.2 °F /  -4.3 °C 30.14in /  1020.5hPa Calm   1.0mph /  1.6km/h 90% 0.00in /  0mm 0 W/m2
05:22 26.8 °F /  -2.9 °C 24.3 °F /  -4.3 °C 30.14in /  1020.5hPa Calm   2.0mph /  3.2km/h 90% 0.00in /  0mm 0 W/m2
05:28 26.9 °F /  -2.8 °C 24.4 °F /  -4.2 °C 30.15in /  1020.9hPa ENE 1.0mph /  1.6km/h 2.0mph /  3.2km/h 90% 0.00in /  0mm 0 W/m2
05:34 27.0 °F /  -2.8 °C 24.5 °F /  -4.2 °C 30.14in /  1020.5hPa Calm     90% 0.00in /  0mm 0 W/m2
05:40 27.0 °F /  -2.8 °C 24.5 °F /  -4.2 °C 30.14in /  1020.5hPa Calm     90% 0.00in /  0mm 0 W/m2
05:46 27.0 °F /  -2.8 °C 24.7 °F /  -4.1 °C 30.15in /  1020.9hPa Calm   1.0mph /  1.6km/h 91% 0.00in /  0mm 0 W/m2
05:52 27.1 °F /  -2.7 °C 24.8 °F /  -4 °C 30.15in /  1020.9hPa Calm     91% 0.00in /  0mm 0 W/m2
05:58 27.2 °F /  -2.7 °C 24.9 °F /  -3.9 °C 30.15in /  1020.9hPa Calm   2.0mph /  3.2km/h 91% 0.00in /  0mm 0 W/m2
06:04 27.2 °F /  -2.7 °C 24.9 °F /  -3.9 °C 30.15in /  1020.9hPa ENE 1.0mph /  1.6km/h 1.0mph /  1.6km/h 91% 0.00in /  0mm 0 W/m2
06:10 27.2 °F /  -2.7 °C 24.9 °F /  -3.9 °C 30.14in /  1020.5hPa Calm     91% 0.00in /  0mm 0 W/m2
06:16 27.2 °F /  -2.7 °C 24.9 °F /  -3.9 °C 30.15in /  1020.9hPa Calm     91% 0.00in /  0mm 0 W/m2
06:22 27.2 °F /  -2.7 °C 24.9 °F /  -3.9 °C 30.14in /  1020.5hPa Calm     91% 0.00in /  0mm 0 W/m2
06:28 27.3 °F /  -2.6 °C 25.0 °F /  -3.9 °C 30.15in /  1020.9hPa Calm     91% 0.00in /  0mm 0 W/m2
06:34 27.3 °F /  -2.6 °C 25.0 °F /  -3.9 °C 30.15in /  1020.9hPa Calm     91% 0.00in /  0mm 0 W/m2
06:40 27.3 °F /  -2.6 °C 25.0 °F /  -3.9 °C 30.15in /  1020.9hPa Calm     91% 0.00in /  0mm 0 W/m2
06:46 27.4 °F /  -2.6 °C 25.1 °F /  -3.8 °C 30.15in /  1020.9hPa Calm     91% 0.00in /  0mm 0 W/m2
06:52 27.4 °F /  -2.6 °C 25.1 °F /  -3.8 °C 30.15in /  1020.9hPa Calm     91% 0.00in /  0mm 0 W/m2
06:58 27.4 °F /  -2.6 °C 25.1 °F /  -3.8 °C 30.15in /  1020.9hPa Calm     91% 0.00in /  0mm 0 W/m2
07:04 27.4 °F /  -2.6 °C 25.1 °F /  -3.8 °C 30.15in /  1020.9hPa Calm     91% 0.00in /  0mm 0 W/m2
07:10 27.4 °F /  -2.6 °C 25.1 °F /  -3.8 °C 30.14in /  1020.5hPa Calm     91% 0.00in /  0mm 0 W/m2
07:16 27.4 °F /  -2.6 °C 25.1 °F /  -3.8 °C 30.15in /  1020.9hPa Calm     91% 0.00in /  0mm 0 W/m2
07:22 27.6 °F /  -2.4 °C 25.3 °F /  -3.7 °C 30.15in /  1020.9hPa Calm     91% 0.00in /  0mm 0 W/m2
07:28 27.6 °F /  -2.4 °C 25.3 °F /  -3.7 °C 30.15in /  1020.9hPa Calm     91% 0.00in /  0mm 0 W/m2
07:34 27.7 °F /  -2.4 °C 25.4 °F /  -3.7 °C 30.14in /  1020.5hPa Calm     91% 0.00in /  0mm 5 W/m2
07:40 27.7 °F /  -2.4 °C 25.4 °F /  -3.7 °C 30.15in /  1020.9hPa Calm     91% 0.00in /  0mm 5 W/m2
07:46 27.8 °F /  -2.3 °C 25.5 °F /  -3.6 °C 30.15in /  1020.9hPa Calm     91% 0.00in /  0mm 7 W/m2
07:52 28.0 °F /  -2.2 °C 25.7 °F /  -3.5 °C 30.15in /  1020.9hPa Calm     91% 0.00in /  0mm 7 W/m2
07:58 28.1 °F /  -2.2 °C 26.1 °F /  -3.3 °C 30.15in /  1020.9hPa Calm     92% 0.00in /  0mm 9 W/m2
08:04 28.3 °F /  -2.1 °C 26.3 °F /  -3.2 °C 30.15in /  1020.9hPa Calm     92% 0.00in /  0mm 11 W/m2
08:10 28.4 °F /  -2 °C 26.4 °F /  -3.1 °C 30.15in /  1020.9hPa Calm     92% 0.00in /  0mm 9 W/m2
08:16 28.6 °F /  -1.9 °C 26.6 °F /  -3 °C 30.16in /  1021.2hPa Calm     92% 0.00in /  0mm 9 W/m2
08:22 28.6 °F /  -1.9 °C 26.6 °F /  -3 °C 30.15in /  1020.9hPa Calm     92% 0.00in /  0mm 11 W/m2
08:28 28.7 °F /  -1.8 °C 26.7 °F /  -2.9 °C 30.16in /  1021.2hPa Calm     92% 0.00in /  0mm 12 W/m2
08:34 28.7 °F /  -1.8 °C 26.4 °F /  -3.1 °C 30.16in /  1021.2hPa Calm     91% 0.00in /  0mm 14 W/m2
08:40 28.7 °F /  -1.8 °C 26.4 °F /  -3.1 °C 30.16in /  1021.2hPa Calm     91% 0.00in /  0mm 16 W/m2
08:46 28.8 °F /  -1.8 °C 26.8 °F /  -2.9 °C 30.15in /  1020.9hPa Calm     92% 0.00in /  0mm 18 W/m2
08:52 28.9 °F /  -1.7 °C 26.9 °F /  -2.8 °C 30.15in /  1020.9hPa Calm     92% 0.00in /  0mm 18 W/m2
08:58 29.0 °F /  -1.7 °C 27.0 °F /  -2.8 °C 30.14in /  1020.5hPa Calm     92% 0.00in /  0mm 23 W/m2
09:04 29.1 °F /  -1.6 °C 27.1 °F /  -2.7 °C 30.15in /  1020.9hPa Calm     92% 0.00in /  0mm 21 W/m2
09:10 29.2 °F /  -1.6 °C 27.2 °F /  -2.7 °C 30.14in /  1020.5hPa Calm     92% 0.00in /  0mm 26 W/m2
09:16 29.3 °F /  -1.5 °C 27.3 °F /  -2.6 °C 30.14in /  1020.5hPa Calm     92% 0.00in /  0mm 28 W/m2
09:22 29.5 °F /  -1.4 °C 27.5 °F /  -2.5 °C 30.15in /  1020.9hPa Calm     92% 0.00in /  0mm 26 W/m2
09:28 29.6 °F /  -1.3 °C 27.6 °F /  -2.4 °C 30.14in /  1020.5hPa Calm   1.0mph /  1.6km/h 92% 0.00in /  0mm 26 W/m2
09:34 29.8 °F /  -1.2 °C 27.8 °F /  -2.3 °C 30.14in /  1020.5hPa Calm     92% 0.00in /  0mm 35 W/m2
09:40 30.0 °F /  -1.1 °C 28.0 °F /  -2.2 °C 30.14in /  1020.5hPa Calm     92% 0.00in /  0mm 37 W/m2
09:46 30.2 °F /  -1 °C 28.2 °F /  -2.1 °C 30.14in /  1020.5hPa Calm   2.0mph /  3.2km/h 92% 0.00in /  0mm 42 W/m2
09:52 30.4 °F /  -0.9 °C 28.4 °F /  -2 °C 30.14in /  1020.5hPa Calm     92% 0.00in /  0mm 46 W/m2
09:58 30.7 °F /  -0.7 °C 28.7 °F /  -1.8 °C 30.14in /  1020.5hPa Calm   1.0mph /  1.6km/h 92% 0.00in /  0mm 47 W/m2
10:04 30.8 °F /  -0.7 °C 28.8 °F /  -1.8 °C 30.14in /  1020.5hPa Calm   2.0mph /  3.2km/h 92% 0.00in /  0mm 47 W/m2
10:10 31.0 °F /  -0.6 °C 28.7 °F /  -1.8 °C 30.14in /  1020.5hPa ENE 1.0mph /  1.6km/h 1.0mph /  1.6km/h 91% 0.00in /  0mm 49 W/m2
10:16 31.2 °F /  -0.4 °C 29.1 °F /  -1.6 °C 30.14in /  1020.5hPa ENE 1.0mph /  1.6km/h 2.0mph /  3.2km/h 92% 0.00in /  0mm 56 W/m2
10:22 31.3 °F /  -0.4 °C 29.0 °F /  -1.7 °C 30.14in /  1020.5hPa ENE 1.0mph /  1.6km/h 1.0mph /  1.6km/h 91% 0.00in /  0mm 53 W/m2
10:28 31.5 °F /  -0.3 °C 29.2 °F /  -1.6 °C 30.14in /  1020.5hPa Calm   1.0mph /  1.6km/h 91% 0.00in /  0mm 69 W/m2
10:34 31.6 °F /  -0.2 °C 29.3 °F /  -1.5 °C 30.13in /  1020.2hPa Calm     91% 0.00in /  0mm 86 W/m2
10:40 31.8 °F /  -0.1 °C 29.5 °F /  -1.4 °C 30.13in /  1020.2hPa Calm     91% 0.00in /  0mm 105 W/m2
10:46 32.0 °F /  0 °C 29.7 °F /  -1.3 °C 30.13in /  1020.2hPa Calm     91% 0.00in /  0mm 104 W/m2
10:52 32.2 °F /  0.1 °C 29.9 °F /  -1.2 °C 30.13in /  1020.2hPa Calm     91% 0.00in /  0mm 104 W/m2
10:58 32.5 °F /  0.3 °C 30.2 °F /  -1 °C 30.13in /  1020.2hPa Calm     91% 0.00in /  0mm 105 W/m2
11:04 32.7 °F /  0.4 °C 30.1 °F /  -1.1 °C 30.12in /  1019.9hPa Calm     90% 0.00in /  0mm 160 W/m2
11:10 32.9 °F /  0.5 °C 30.3 °F /  -0.9 °C 30.12in /  1019.9hPa Calm     90% 0.00in /  0mm 158 W/m2
11:16 33.2 °F /  0.7 °C 30.6 °F /  -0.8 °C 30.12in /  1019.9hPa Calm   1.0mph /  1.6km/h 90% 0.00in /  0mm 202 W/m2
11:22 33.9 °F /  1.1 °C 31.3 °F /  -0.4 °C 30.11in /  1019.5hPa Calm     90% 0.00in /  0mm 216 W/m2
11:28 34.5 °F /  1.4 °C 31.6 °F /  -0.2 °C 30.11in /  1019.5hPa Calm     89% 0.00in /  0mm 211 W/m2
11:34 34.9 °F /  1.6 °C 31.7 °F /  -0.2 °C 30.11in /  1019.5hPa Calm   2.0mph /  3.2km/h 88% 0.00in /  0mm 220 W/m2
11:40 35.3 °F /  1.8 °C 32.1 °F /  0.1 °C 30.11in /  1019.5hPa Calm     88% 0.00in /  0mm 206 W/m2
11:46 35.5 °F /  1.9 °C 32.0 °F /  0 °C 30.11in /  1019.5hPa Calm     87% 0.00in /  0mm 202 W/m2
11:52 35.5 °F /  1.9 °C 31.7 °F /  -0.2 °C 30.09in /  1018.8hPa Calm     86% 0.00in /  0mm 234 W/m2
11:58 35.9 °F /  2.2 °C 31.8 °F /  -0.1 °C 30.09in /  1018.8hPa Calm     85% 0.00in /  0mm 209 W/m2
12:04 36.2 °F /  2.3 °C 32.1 °F /  0.1 °C 30.09in /  1018.8hPa Calm     85% 0.00in /  0mm 209 W/m2
12:10 36.4 °F /  2.4 °C 32.0 °F /  0 °C 30.09in /  1018.8hPa Calm   1.0mph /  1.6km/h 84% 0.00in /  0mm 213 W/m2
12:16 36.3 °F /  2.4 °C 31.9 °F /  -0.1 °C 30.08in /  1018.5hPa Calm   1.0mph /  1.6km/h 84% 0.00in /  0mm 207 W/m2
12:22 36.3 °F /  2.4 °C 31.9 °F /  -0.1 °C 30.08in /  1018.5hPa Calm     84% 0.00in /  0mm 193 W/m2
12:28 36.3 °F /  2.4 °C 31.9 °F /  -0.1 °C 30.08in /  1018.5hPa Calm     84% 0.00in /  0mm 178 W/m2
12:34 36.4 °F /  2.4 °C 32.0 °F /  0 °C 30.07in /  1018.2hPa Calm     84% 0.00in /  0mm 165 W/m2
12:40 36.8 °F /  2.7 °C 32.4 °F /  0.2 °C 30.07in /  1018.2hPa Calm     84% 0.00in /  0mm 158 W/m2
12:46 36.9 °F /  2.7 °C 32.5 °F /  0.3 °C 30.06in /  1017.8hPa Calm   1.0mph /  1.6km/h 84% 0.00in /  0mm 130 W/m2
12:52 36.9 °F /  2.7 °C 32.5 °F /  0.3 °C 30.06in /  1017.8hPa Calm   1.0mph /  1.6km/h 84% 0.00in /  0mm 127 W/m2
12:58 36.7 °F /  2.6 °C 32.3 °F /  0.2 °C 30.06in /  1017.8hPa ENE 1.0mph /  1.6km/h 2.0mph /  3.2km/h 84% 0.00in /  0mm 100 W/m2
13:04 36.5 °F /  2.5 °C 32.1 °F /  0.1 °C 30.06in /  1017.8hPa ENE 1.0mph /  1.6km/h 2.0mph /  3.2km/h 84% 0.00in /  0mm 127 W/m2
13:10 36.4 °F /  2.4 °C 32.0 °F /  0 °C 30.05in /  1017.5hPa ENE 1.0mph /  1.6km/h 1.0mph /  1.6km/h 84% 0.00in /  0mm 127 W/m2
13:16 36.4 °F /  2.4 °C 32.0 °F /  0 °C 30.05in /  1017.5hPa NE 1.0mph /  1.6km/h 3.0mph /  4.8km/h 84% 0.00in /  0mm 91 W/m2
13:22 36.2 °F /  2.3 °C 31.8 °F /  -0.1 °C 30.05in /  1017.5hPa NE 2.0mph /  3.2km/h 3.0mph /  4.8km/h 84% 0.00in /  0mm 70 W/m2
13:28 35.9 °F /  2.2 °C 31.8 °F /  -0.1 °C 30.05in /  1017.5hPa NNE 1.0mph /  1.6km/h 3.0mph /  4.8km/h 85% 0.00in /  0mm 70 W/m2
13:34 35.9 °F /  2.2 °C 31.8 °F /  -0.1 °C 30.05in /  1017.5hPa NNE 1.0mph /  1.6km/h 1.0mph /  1.6km/h 85% 0.00in /  0mm 54 W/m2
13:40 35.7 °F /  2.1 °C 31.9 °F /  -0.1 °C 30.04in /  1017.2hPa Calm   2.0mph /  3.2km/h 86% 0.00in /  0mm 53 W/m2
13:46 35.6 °F /  2 °C 31.8 °F /  -0.1 °C 30.04in /  1017.2hPa Calm   2.0mph /  3.2km/h 86% 0.00in /  0mm 46 W/m2
13:52 35.6 °F /  2 °C 31.8 °F /  -0.1 °C 30.04in /  1017.2hPa Calm     86% 0.00in /  0mm 37 W/m2
13:58 35.5 °F /  1.9 °C 32.0 °F /  0 °C 30.04in /  1017.2hPa Calm     87% 0.00in /  0mm 30 W/m2
14:04 35.4 °F /  1.9 °C 31.9 °F /  -0.1 °C 30.03in /  1016.8hPa NNE 1.0mph /  1.6km/h 2.0mph /  3.2km/h 87% 0.00in /  0mm 32 W/m2
14:10 35.2 °F /  1.8 °C 31.7 °F /  -0.2 °C 30.03in /  1016.8hPa NNE 1.0mph /  1.6km/h 1.0mph /  1.6km/h 87% 0.00in /  0mm 28 W/m2
14:16 35.2 °F /  1.8 °C 32.0 °F /  0 °C 30.03in /  1016.8hPa Calm   1.0mph /  1.6km/h 88% 0.00in /  0mm 35 W/m2
14:22 35.2 °F /  1.8 °C 32.0 °F /  0 °C 30.03in /  1016.8hPa Calm     88% 0.00in /  0mm 35 W/m2
14:28 35.2 °F /  1.8 °C 32.0 °F /  0 °C 30.03in /  1016.8hPa Calm     88% 0.00in /  0mm 35 W/m2
14:34 35.1 °F /  1.7 °C 32.2 °F /  0.1 °C 30.03in /  1016.8hPa Calm     89% 0.00in /  0mm 33 W/m2
14:40 35.0 °F /  1.7 °C 32.1 °F /  0.1 °C 30.03in /  1016.8hPa Calm     89% 0.00in /  0mm 30 W/m2
14:46 34.9 °F /  1.6 °C 32.0 °F /  0 °C 30.03in /  1016.8hPa Calm     89% 0.00in /  0mm 37 W/m2
14:52 34.9 °F /  1.6 °C 32.0 °F /  0 °C 30.03in /  1016.8hPa Calm     89% 0.00in /  0mm 39 W/m2
14:58 35.0 °F /  1.7 °C 32.4 °F /  0.2 °C 30.03in /  1016.8hPa Calm   1.0mph /  1.6km/h 90% 0.00in /  0mm 35 W/m2
15:04 34.8 °F /  1.6 °C 32.2 °F /  0.1 °C 30.02in /  1016.5hPa NNE 1.0mph /  1.6km/h 2.0mph /  3.2km/h 90% 0.00in /  0mm 40 W/m2
15:10 34.7 °F /  1.5 °C 32.1 °F /  0.1 °C 30.02in /  1016.5hPa North 1.0mph /  1.6km/h 1.0mph /  1.6km/h 90% 0.00in /  0mm 42 W/m2
15:16 34.6 °F /  1.4 °C 32.0 °F /  0 °C 30.02in /  1016.5hPa NNW 1.0mph /  1.6km/h 2.0mph /  3.2km/h 90% 0.00in /  0mm 49 W/m2
15:22 34.5 °F /  1.4 °C 31.9 °F /  -0.1 °C 30.01in /  1016.1hPa NNW 1.0mph /  1.6km/h 1.0mph /  1.6km/h 90% 0.00in /  0mm 51 W/m2
15:28 34.4 °F /  1.3 °C 31.8 °F /  -0.1 °C 30.02in /  1016.5hPa NNW 1.0mph /  1.6km/h 2.0mph /  3.2km/h 90% 0.00in /  0mm 51 W/m2
15:34 34.4 °F /  1.3 °C 31.8 °F /  -0.1 °C 30.03in /  1016.8hPa NNW 1.0mph /  1.6km/h 3.0mph /  4.8km/h 90% 0.00in /  0mm 44 W/m2
15:40 34.3 °F /  1.3 °C 31.7 °F /  -0.2 °C 30.02in /  1016.5hPa NW 2.0mph /  3.2km/h 2.0mph /  3.2km/h 90% 0.00in /  0mm 47 W/m2
15:48 34.3 °F /  1.3 °C 31.7 °F /  -0.2 °C 30.01in /  1016.1hPa NW 1.0mph /  1.6km/h 3.0mph /  4.8km/h 90% 0.00in /  0mm 44 W/m2
15:54 34.1 °F /  1.2 °C 31.7 °F /  -0.2 °C 30.01in /  1016.1hPa NW 1.0mph /  1.6km/h 1.0mph /  1.6km/h 91% 0.00in /  0mm 39 W/m2
16:00 34.0 °F /  1.1 °C 31.4 °F /  -0.3 °C 30.01in /  1016.1hPa NW 2.0mph /  3.2km/h 3.0mph /  4.8km/h 90% 0.00in /  0mm 37 W/m2
16:06 33.8 °F /  1 °C 31.5 °F /  -0.3 °C 30.01in /  1016.1hPa NW 2.0mph /  3.2km/h 3.0mph /  4.8km/h 91% 0.00in /  0mm 35 W/m2
16:12 33.7 °F /  0.9 °C 31.4 °F /  -0.3 °C 30.01in /  1016.1hPa NW 2.0mph /  3.2km/h 4.0mph /  6.4km/h 91% 0.00in /  0mm 28 W/m2
16:18 33.5 °F /  0.8 °C 31.2 °F /  -0.4 °C 30.03in /  1016.8hPa NW 3.0mph /  4.8km/h 4.0mph /  6.4km/h 91% 0.00in /  0mm 23 W/m2
16:24 33.2 °F /  0.7 °C 30.9 °F /  -0.6 °C 30.03in /  1016.8hPa NW 3.0mph /  4.8km/h 3.0mph /  4.8km/h 91% 0.00in /  0mm 19 W/m2
16:30 32.9 °F /  0.5 °C 30.6 °F /  -0.8 °C 30.03in /  1016.8hPa NW 2.0mph /  3.2km/h 2.0mph /  3.2km/h 91% 0.00in /  0mm 18 W/m2
16:36 32.5 °F /  0.3 °C 30.2 °F /  -1 °C 30.03in /  1016.8hPa NW 2.0mph /  3.2km/h 4.0mph /  6.4km/h 91% 0.00in /  0mm 14 W/m2
16:42 32.2 °F /  0.1 °C 29.9 °F /  -1.2 °C 30.03in /  1016.8hPa NW 3.0mph /  4.8km/h 3.0mph /  4.8km/h 91% 0.00in /  0mm 11 W/m2
16:48 32.0 °F /  0 °C 29.7 °F /  -1.3 °C 30.04in /  1017.2hPa NW 2.0mph /  3.2km/h 3.0mph /  4.8km/h 91% 0.00in /  0mm 9 W/m2
16:54 31.9 °F /  -0.1 °C 29.6 °F /  -1.3 °C 30.03in /  1016.8hPa NW 2.0mph /  3.2km/h 2.0mph /  3.2km/h 91% 0.00in /  0mm 7 W/m2
17:00 31.7 °F /  -0.2 °C 29.4 °F /  -1.4 °C 30.03in /  1016.8hPa NW 2.0mph /  3.2km/h 3.0mph /  4.8km/h 91% 0.00in /  0mm 5 W/m2
17:06 31.6 °F /  -0.2 °C 29.3 °F /  -1.5 °C 30.03in /  1016.8hPa NW 3.0mph /  4.8km/h 3.0mph /  4.8km/h 91% 0.00in /  0mm 0 W/m2
17:12 31.4 °F /  -0.3 °C 29.1 °F /  -1.6 °C 30.03in /  1016.8hPa NW 3.0mph /  4.8km/h 4.0mph /  6.4km/h 91% 0.00in /  0mm 0 W/m2
17:18 31.3 °F /  -0.4 °C 29.0 °F /  -1.7 °C 30.04in /  1017.2hPa NNW 3.0mph /  4.8km/h 4.0mph /  6.4km/h 91% 0.00in /  0mm 0 W/m2
17:24 31.3 °F /  -0.4 °C 29.0 °F /  -1.7 °C 30.05in /  1017.5hPa NNW 3.0mph /  4.8km/h 3.0mph /  4.8km/h 91% 0.00in /  0mm 0 W/m2
17:30 31.3 °F /  -0.4 °C 29.0 °F /  -1.7 °C 30.05in /  1017.5hPa NNW 3.0mph /  4.8km/h 3.0mph /  4.8km/h 91% 0.00in /  0mm 0 W/m2
17:36 31.3 °F /  -0.4 °C 29.2 °F /  -1.6 °C 30.06in /  1017.8hPa NW 2.0mph /  3.2km/h 3.0mph /  4.8km/h 92% 0.00in /  0mm 0 W/m2
17:42 31.2 °F /  -0.4 °C 29.1 °F /  -1.6 °C 30.06in /  1017.8hPa NNW 4.0mph /  6.4km/h 5.0mph /  8km/h 92% 0.00in /  0mm 0 W/m2
17:48 31.2 °F /  -0.4 °C 29.1 °F /  -1.6 °C 30.06in /  1017.8hPa NNW 3.0mph /  4.8km/h 5.0mph /  8km/h 92% 0.00in /  0mm 0 W/m2
17:54 31.1 °F /  -0.5 °C 29.0 °F /  -1.7 °C 30.06in /  1017.8hPa NNW 1.0mph /  1.6km/h 4.0mph /  6.4km/h 92% 0.00in /  0mm 0 W/m2
18:00 31.0 °F /  -0.6 °C 28.7 °F /  -1.8 °C 30.07in /  1018.2hPa NNW 2.0mph /  3.2km/h 2.0mph /  3.2km/h 91% 0.00in /  0mm 0 W/m2
18:06 30.9 °F /  -0.6 °C 28.6 °F /  -1.9 °C 30.06in /  1017.8hPa NNW 1.0mph /  1.6km/h 2.0mph /  3.2km/h 91% 0.00in /  0mm 0 W/m2
18:12 30.9 °F /  -0.6 °C 28.6 °F /  -1.9 °C 30.07in /  1018.2hPa NNW 1.0mph /  1.6km/h 3.0mph /  4.8km/h 91% 0.00in /  0mm 0 W/m2
18:18 30.8 °F /  -0.7 °C 28.5 °F /  -1.9 °C 30.07in /  1018.2hPa NNW 1.0mph /  1.6km/h 3.0mph /  4.8km/h 91% 0.00in /  0mm 0 W/m2
18:24 30.7 °F /  -0.7 °C 28.7 °F /  -1.8 °C 30.07in /  1018.2hPa NNW 1.0mph /  1.6km/h 1.0mph /  1.6km/h 92% 0.00in /  0mm 0 W/m2
18:30 30.6 °F /  -0.8 °C 28.6 °F /  -1.9 °C 30.07in /  1018.2hPa NNW 2.0mph /  3.2km/h 2.0mph /  3.2km/h 92% 0.00in /  0mm 0 W/m2
18:36 30.5 °F /  -0.8 °C 28.5 °F /  -1.9 °C 30.07in /  1018.2hPa NNW 3.0mph /  4.8km/h 3.0mph /  4.8km/h 92% 0.00in /  0mm 0 W/m2
18:42 30.4 °F /  -0.9 °C 28.1 °F /  -2.2 °C 30.07in /  1018.2hPa NNW 2.0mph /  3.2km/h 6.0mph /  9.7km/h 91% 0.00in /  0mm 0 W/m2
18:48 30.2 °F /  -1 °C 27.9 °F /  -2.3 °C 30.07in /  1018.2hPa NNW 2.0mph /  3.2km/h 6.0mph /  9.7km/h 91% 0.00in /  0mm 0 W/m2
18:54 30.1 °F /  -1.1 °C 27.8 °F /  -2.3 °C 30.07in /  1018.2hPa NNW 1.0mph /  1.6km/h 2.0mph /  3.2km/h 91% 0.00in /  0mm 0 W/m2
19:00 30.0 °F /  -1.1 °C 27.7 °F /  -2.4 °C 30.07in /  1018.2hPa NNW 1.0mph /  1.6km/h 1.0mph /  1.6km/h 91% 0.00in /  0mm 0 W/m2
19:06 29.9 °F /  -1.2 °C 27.6 °F /  -2.4 °C 30.07in /  1018.2hPa NNW 1.0mph /  1.6km/h 4.0mph /  6.4km/h 91% 0.00in /  0mm 0 W/m2
19:12 29.8 °F /  -1.2 °C 27.5 °F /  -2.5 °C 30.07in /  1018.2hPa NNW 1.0mph /  1.6km/h 2.0mph /  3.2km/h 91% 0.00in /  0mm 0 W/m2
19:18 29.6 °F /  -1.3 °C 27.3 °F /  -2.6 °C 30.07in /  1018.2hPa NNW 1.0mph /  1.6km/h 2.0mph /  3.2km/h 91% 0.00in /  0mm 0 W/m2
19:24 29.6 °F /  -1.3 °C 27.3 °F /  -2.6 °C 30.07in /  1018.2hPa NNW 1.0mph /  1.6km/h 1.0mph /  1.6km/h 91% 0.00in /  0mm 0 W/m2
19:30 29.4 °F /  -1.4 °C 27.1 °F /  -2.7 °C 30.07in /  1018.2hPa NNW 1.0mph /  1.6km/h 2.0mph /  3.2km/h 91% 0.00in /  0mm 0 W/m2
19:36 29.2 °F /  -1.6 °C 26.9 °F /  -2.8 °C 30.07in /  1018.2hPa NNW 1.0mph /  1.6km/h 2.0mph /  3.2km/h 91% 0.00in /  0mm 0 W/m2
19:42 29.3 °F /  -1.5 °C 27.0 °F /  -2.8 °C 30.07in /  1018.2hPa Calm   1.0mph /  1.6km/h 91% 0.00in /  0mm 0 W/m2
19:48 29.3 °F /  -1.5 °C 27.3 °F /  -2.6 °C 30.08in /  1018.5hPa NNW 1.0mph /  1.6km/h 1.0mph /  1.6km/h 92% 0.00in /  0mm 0 W/m2
19:54 29.4 °F /  -1.4 °C 27.1 °F /  -2.7 °C 30.08in /  1018.5hPa NNW 1.0mph /  1.6km/h 1.0mph /  1.6km/h 91% 0.00in /  0mm 0 W/m2
20:00 29.2 °F /  -1.6 °C 26.9 °F /  -2.8 °C 30.07in /  1018.2hPa NNW 1.0mph /  1.6km/h 1.0mph /  1.6km/h 91% 0.00in /  0mm 0 W/m2
20:06 29.1 °F /  -1.6 °C 26.8 °F /  -2.9 °C 30.07in /  1018.2hPa NNW 1.0mph /  1.6km/h 2.0mph /  3.2km/h 91% 0.00in /  0mm 0 W/m2
20:12 29.0 °F /  -1.7 °C 27.0 °F /  -2.8 °C 30.07in /  1018.2hPa NNW 1.0mph /  1.6km/h 1.0mph /  1.6km/h 92% 0.00in /  0mm 0 W/m2
20:18 28.9 °F /  -1.7 °C 26.9 °F /  -2.8 °C 30.07in /  1018.2hPa NNW 1.0mph /  1.6km/h 2.0mph /  3.2km/h 92% 0.00in /  0mm 0 W/m2
20:24 28.8 °F /  -1.8 °C 26.8 °F /  -2.9 °C 30.07in /  1018.2hPa NNW 1.0mph /  1.6km/h 2.0mph /  3.2km/h 92% 0.00in /  0mm 0 W/m2
20:30 28.7 °F /  -1.8 °C 26.7 °F /  -2.9 °C 30.07in /  1018.2hPa NNW 1.0mph /  1.6km/h 2.0mph /  3.2km/h 92% 0.00in /  0mm 0 W/m2
20:36 28.7 °F /  -1.8 °C 26.7 °F /  -2.9 °C 30.07in /  1018.2hPa NNW 1.0mph /  1.6km/h 3.0mph /  4.8km/h 92% 0.00in /  0mm 0 W/m2
20:42 28.6 °F /  -1.9 °C 26.6 °F /  -3 °C 30.07in /  1018.2hPa NNW 1.0mph /  1.6km/h 2.0mph /  3.2km/h 92% 0.00in /  0mm 0 W/m2
20:48 28.6 °F /  -1.9 °C 26.6 °F /  -3 °C 30.08in /  1018.5hPa NNW 1.0mph /  1.6km/h 3.0mph /  4.8km/h 92% 0.00in /  0mm 0 W/m2
20:54 28.5 °F /  -1.9 °C 26.5 °F /  -3.1 °C 30.08in /  1018.5hPa SW 1.0mph /  1.6km/h 3.0mph /  4.8km/h 92% 0.00in /  0mm 0 W/m2
21:00 28.4 °F /  -2 °C 26.4 °F /  -3.1 °C 30.08in /  1018.5hPa WNW 2.0mph /  3.2km/h 2.0mph /  3.2km/h 92% 0.00in /  0mm 0 W/m2
21:06 28.3 °F /  -2.1 °C 26.3 °F /  -3.2 °C 30.08in /  1018.5hPa WNW 1.0mph /  1.6km/h 3.0mph /  4.8km/h 92% 0.00in /  0mm 0 W/m2
21:12 28.2 °F /  -2.1 °C 26.2 °F /  -3.2 °C 30.09in /  1018.8hPa WNW 2.0mph /  3.2km/h 2.0mph /  3.2km/h 92% 0.00in /  0mm 0 W/m2
21:18 28.1 °F /  -2.2 °C 26.1 °F /  -3.3 °C 30.09in /  1018.8hPa WNW 2.0mph /  3.2km/h 2.0mph /  3.2km/h 92% 0.00in /  0mm 0 W/m2
21:24 28.1 °F /  -2.2 °C 26.1 °F /  -3.3 °C 30.08in /  1018.5hPa WNW 1.0mph /  1.6km/h 5.0mph /  8km/h 92% 0.00in /  0mm 0 W/m2
21:30 28.1 °F /  -2.2 °C 26.1 °F /  -3.3 °C 30.08in /  1018.5hPa WNW 1.0mph /  1.6km/h 2.0mph /  3.2km/h 92% 0.00in /  0mm 0 W/m2
21:36 28.0 °F /  -2.2 °C 26.0 °F /  -3.3 °C 30.07in /  1018.2hPa WNW 1.0mph /  1.6km/h 2.0mph /  3.2km/h 92% 0.00in /  0mm 0 W/m2
21:42 27.9 °F /  -2.3 °C 25.9 °F /  -3.4 °C 30.07in /  1018.2hPa WNW 1.0mph /  1.6km/h 2.0mph /  3.2km/h 92% 0.00in /  0mm 0 W/m2
21:48 27.8 °F /  -2.3 °C 25.8 °F /  -3.4 °C 30.07in /  1018.2hPa WNW 1.0mph /  1.6km/h 2.0mph /  3.2km/h 92% 0.00in /  0mm 0 W/m2
21:54 27.8 °F /  -2.3 °C 25.8 °F /  -3.4 °C 30.08in /  1018.5hPa WNW 1.0mph /  1.6km/h 2.0mph /  3.2km/h 92% 0.00in /  0mm 0 W/m2
22:00 27.8 °F /  -2.3 °C 25.8 °F /  -3.4 °C 30.08in /  1018.5hPa WNW 1.0mph /  1.6km/h 1.0mph /  1.6km/h 92% 0.00in /  0mm 0 W/m2
22:06 27.8 °F /  -2.3 °C 25.8 °F /  -3.4 °C 30.08in /  1018.5hPa WNW 1.0mph /  1.6km/h 1.0mph /  1.6km/h 92% 0.00in /  0mm 0 W/m2
22:12 27.8 °F /  -2.3 °C 25.8 °F /  -3.4 °C 30.07in /  1018.2hPa WNW 1.0mph /  1.6km/h 3.0mph /  4.8km/h 92% 0.00in /  0mm 0 W/m2
22:18 27.6 °F /  -2.4 °C 25.3 °F /  -3.7 °C 30.07in /  1018.2hPa WNW 1.0mph /  1.6km/h 3.0mph /  4.8km/h 91% 0.00in /  0mm 0 W/m2
22:24 27.5 °F /  -2.5 °C 25.2 °F /  -3.8 °C 30.07in /  1018.2hPa WNW 1.0mph /  1.6km/h 2.0mph /  3.2km/h 91% 0.00in /  0mm 0 W/m2
22:30 27.5 °F /  -2.5 °C 25.2 °F /  -3.8 °C 30.07in /  1018.2hPa WNW 1.0mph /  1.6km/h 3.0mph /  4.8km/h 91% 0.00in /  0mm 0 W/m2
22:36 27.4 °F /  -2.6 °C 25.1 °F /  -3.8 °C 30.08in /  1018.5hPa WNW 1.0mph /  1.6km/h 3.0mph /  4.8km/h 91% 0.00in /  0mm 0 W/m2
22:42 27.3 °F /  -2.6 °C 25.0 °F /  -3.9 °C 30.08in /  1018.5hPa WNW 1.0mph /  1.6km/h 1.0mph /  1.6km/h 91% 0.00in /  0mm 0 W/m2
22:48 27.3 °F /  -2.6 °C 25.0 °F /  -3.9 °C 30.08in /  1018.5hPa Calm   2.0mph /  3.2km/h 91% 0.00in /  0mm 0 W/m2
22:53 27.4 °F /  -2.6 °C 25.1 °F /  -3.8 °C 30.08in /  1018.5hPa WNW 1.0mph /  1.6km/h 2.0mph /  3.2km/h 91% 0.00in /  0mm 0 W/m2
23:00 27.4 °F /  -2.6 °C 25.1 °F /  -3.8 °C 30.08in /  1018.5hPa SW 2.0mph /  3.2km/h 2.0mph /  3.2km/h 91% 0.00in /  0mm 0 W/m2
23:06 27.3 °F /  -2.6 °C 25.0 °F /  -3.9 °C 30.09in /  1018.8hPa West 2.0mph /  3.2km/h 2.0mph /  3.2km/h 91% 0.00in /  0mm 0 W/m2
23:12 27.3 °F /  -2.6 °C 25.0 °F /  -3.9 °C 30.09in /  1018.8hPa West 1.0mph /  1.6km/h 2.0mph /  3.2km/h 91% 0.00in /  0mm 0 W/m2
23:18 27.3 °F /  -2.6 °C 25.0 °F /  -3.9 °C 30.08in /  1018.5hPa West 1.0mph /  1.6km/h 2.0mph /  3.2km/h 91% 0.00in /  0mm 0 W/m2
23:24 27.2 °F /  -2.7 °C 24.9 °F /  -3.9 °C 30.09in /  1018.8hPa West 2.0mph /  3.2km/h 3.0mph /  4.8km/h 91% 0.00in /  0mm 0 W/m2
23:30 27.2 °F /  -2.7 °C 24.9 °F /  -3.9 °C 30.09in /  1018.8hPa West 2.0mph /  3.2km/h 4.0mph /  6.4km/h 91% 0.00in /  0mm 0 W/m2
23:36 27.1 °F /  -2.7 °C 24.8 °F /  -4 °C 30.09in /  1018.8hPa West 2.0mph /  3.2km/h 4.0mph /  6.4km/h 91% 0.00in /  0mm 0 W/m2
23:42 27.0 °F /  -2.8 °C 24.7 °F /  -4.1 °C 30.09in /  1018.8hPa West 2.0mph /  3.2km/h 4.0mph /  6.4km/h 91% 0.00in /  0mm 0 W/m2
23:48 26.9 °F /  -2.8 °C 24.6 °F /  -4.1 °C 30.09in /  1018.8hPa WNW 2.0mph /  3.2km/h 4.0mph /  6.4km/h 91% 0.00in /  0mm 0 W/m2
23:54 26.7 °F /  -2.9 °C 24.4 °F /  -4.2 °C 30.09in /  1018.8hPa WNW 2.0mph /  3.2km/h 2.0mph /  3.2km/h 91% 0.00in /  0mm 0 W/m2
Country Meadow, Clay, NY, USA
Compliments of Weather Underground - 2 mb